Esperantina, Brazil
Current Conditions -  °F | °C
As of 3:00 AM on Wednesday 22 Oct 2014 (Local Time) from SBMA Reporting Station
Light Rain Light Rain  
Wind Chill: 73°   Ceiling: Unl
Heat Index: 73°   Visibility: 6mi
Dew Point: 73°   Wind: 2mph
Humidity: 100%   Direction: 270°W
Pressure: 29.83"   Gusts: NA
Location:  5.34°S, 48.51°W
Report Text: SBMA 220600Z 27002KT 9999 -RA SCT020 23/23 Q1010
Loading
Personal Weather Stations






























Interactive Weather Map
Tropical Storm Tracking
New forecast layout! Learn more

10-Day Weather Forecast

Advertisements
Track Severe Weather on mobile